createdAt,value
2019-02-23T00:01:44.991Z,6.50
2019-02-23T00:04:13.238Z,6.40
2019-02-23T00:06:41.470Z,6.40
2019-02-23T00:09:09.700Z,6.30
2019-02-23T00:11:37.934Z,6.30
2019-02-23T00:14:06.205Z,6.30
2019-02-23T00:16:34.456Z,6.20
2019-02-23T00:19:02.687Z,6.20
2019-02-23T00:21:30.930Z,6.20
2019-02-23T00:23:59.177Z,6.10
2019-02-23T00:26:27.455Z,6.10
2019-02-23T00:28:55.666Z,6.10
2019-02-23T00:31:23.887Z,6.00
2019-02-23T00:33:52.130Z,6.10
2019-02-23T00:36:20.362Z,6.00
2019-02-23T00:38:48.610Z,6.00
2019-02-23T00:41:16.852Z,6.00
2019-02-23T00:43:45.094Z,6.00
2019-02-23T00:46:13.336Z,5.90
2019-02-23T00:48:41.563Z,5.90
2019-02-23T00:51:09.818Z,5.80
2019-02-23T00:53:38.049Z,5.80
2019-02-23T00:56:06.263Z,5.70
2019-02-23T00:58:34.519Z,5.70
2019-02-23T01:01:02.762Z,5.70
2019-02-23T01:03:31.018Z,5.60
2019-02-23T01:05:59.246Z,5.50
2019-02-23T01:08:27.583Z,5.50
2019-02-23T01:10:58.363Z,5.40
2019-02-23T01:13:25.750Z,5.40
2019-02-23T01:15:53.987Z,5.40
2019-02-23T01:18:22.250Z,5.40
2019-02-23T01:20:50.489Z,5.30
2019-02-23T01:23:18.726Z,5.30
2019-02-23T01:25:46.962Z,5.20
2019-02-23T01:28:15.270Z,5.20
2019-02-23T01:30:43.524Z,5.20
2019-02-23T01:33:11.782Z,5.10
2019-02-23T01:35:40.031Z,5.10
2019-02-23T01:38:08.272Z,5.10
2019-02-23T01:40:36.522Z,5.00
2019-02-23T01:43:04.758Z,4.90
2019-02-23T01:45:42.085Z,4.90
2019-02-23T01:48:02.959Z,4.90
2019-02-23T01:50:31.200Z,4.90
2019-02-23T01:52:59.419Z,4.90
2019-02-23T01:55:27.687Z,4.80
2019-02-23T01:57:55.923Z,4.80
2019-02-23T02:00:24.827Z,4.70
2019-02-23T02:02:53.081Z,4.60
2019-02-23T02:05:21.309Z,4.60
2019-02-23T02:07:49.838Z,4.60
2019-02-23T02:10:18.068Z,4.40
2019-02-23T02:12:46.305Z,4.40
2019-02-23T02:15:15.312Z,4.30
2019-02-23T02:17:43.559Z,4.30
2019-02-23T02:20:11.857Z,4.20
2019-02-23T02:22:42.819Z,4.20
2019-02-23T02:25:11.074Z,4.10
2019-02-23T02:27:39.321Z,4.20
2019-02-23T02:30:10.086Z,4.10
2019-02-23T02:32:38.401Z,4.10
2019-02-23T02:35:08.655Z,4.10
2019-02-23T02:37:36.884Z,4.10
2019-02-23T02:40:06.656Z,4.10
2019-02-23T02:42:34.908Z,4.10
2019-02-23T02:45:03.152Z,4.10
2019-02-23T02:47:31.380Z,4.10
2019-02-23T02:49:59.639Z,4.10
2019-02-23T02:52:27.887Z,4.10
2019-02-23T02:54:56.102Z,4.10
2019-02-23T02:57:24.352Z,4.10
2019-02-23T02:59:52.584Z,4.20
2019-02-23T03:02:20.848Z,4.20
2019-02-23T03:04:49.059Z,4.10
2019-02-23T03:07:17.292Z,4.00
2019-02-23T03:09:45.546Z,4.00
2019-02-23T03:12:13.777Z,3.90
2019-02-23T03:14:42.010Z,3.90
2019-02-23T03:17:10.251Z,3.90
2019-02-23T03:19:38.503Z,4.00
2019-02-23T03:22:06.761Z,4.00
2019-02-23T03:24:34.990Z,4.00
2019-02-23T03:27:03.243Z,4.00
2019-02-23T03:29:31.473Z,4.00
2019-02-23T03:31:59.707Z,4.00
2019-02-23T03:34:27.956Z,4.00
2019-02-23T03:36:56.190Z,4.00
2019-02-23T03:39:24.457Z,4.00
2019-02-23T03:41:52.698Z,3.90
2019-02-23T03:44:20.949Z,3.90
2019-02-23T03:46:50.824Z,3.80
2019-02-23T03:49:19.081Z,3.70
2019-02-23T03:51:47.310Z,3.80
2019-02-23T03:54:15.541Z,3.80
2019-02-23T03:56:43.801Z,3.80
2019-02-23T03:59:12.051Z,3.80
2019-02-23T04:01:40.291Z,3.80
2019-02-23T04:04:08.533Z,3.80
2019-02-23T04:06:36.764Z,3.70
2019-02-23T04:09:05.445Z,3.70
2019-02-23T04:11:33.692Z,3.60
2019-02-23T04:14:01.950Z,3.50
2019-02-23T04:16:30.179Z,3.40
2019-02-23T04:18:58.426Z,3.30
2019-02-23T04:21:26.675Z,3.30
2019-02-23T04:23:55.374Z,3.30
2019-02-23T04:26:23.937Z,3.20
2019-02-23T04:28:52.170Z,3.20
2019-02-23T04:31:20.471Z,3.20
2019-02-23T04:33:48.722Z,3.10
2019-02-23T04:36:16.977Z,3.10
2019-02-23T04:38:45.212Z,3.10
2019-02-23T04:41:13.458Z,3.20
2019-02-23T04:43:44.027Z,3.20
2019-02-23T04:46:11.659Z,3.10
2019-02-23T04:48:39.886Z,3.10
2019-02-23T04:51:14.434Z,3.10
2019-02-23T04:53:38.111Z,3.10
2019-02-23T04:56:06.345Z,3.20
2019-02-23T04:58:34.589Z,3.10
2019-02-23T05:01:02.832Z,3.00
2019-02-23T05:03:31.068Z,3.00
2019-02-23T05:05:59.308Z,3.00
2019-02-23T05:08:27.570Z,3.00
2019-02-23T05:10:55.798Z,2.90
2019-02-23T05:13:24.096Z,2.90
2019-02-23T05:15:52.365Z,2.80
2019-02-23T05:18:20.578Z,2.80
2019-02-23T05:20:48.830Z,2.80
2019-02-23T05:23:17.086Z,2.60
2019-02-23T05:25:45.342Z,2.60
2019-02-23T05:28:13.579Z,2.60
2019-02-23T05:30:41.827Z,2.60
2019-02-23T05:33:10.055Z,2.70
2019-02-23T05:35:38.313Z,2.70
2019-02-23T05:38:06.544Z,2.60
2019-02-23T05:40:34.770Z,2.60
2019-02-23T05:43:03.038Z,2.60
2019-02-23T05:45:31.256Z,2.50
2019-02-23T05:47:59.508Z,2.50
2019-02-23T05:50:27.749Z,2.50
2019-02-23T05:52:56.070Z,2.50
2019-02-23T05:55:24.308Z,2.50
2019-02-23T05:57:52.533Z,2.50
2019-02-23T06:00:20.772Z,2.50
2019-02-23T06:02:49.001Z,2.40
2019-02-23T06:05:17.244Z,2.30
2019-02-23T06:07:45.510Z,2.30
2019-02-23T06:10:13.759Z,2.30
2019-02-23T06:12:41.992Z,2.30
2019-02-23T06:15:12.078Z,2.30
2019-02-23T06:17:40.329Z,2.20
2019-02-23T06:20:09.200Z,2.30
2019-02-23T06:22:37.447Z,2.20
2019-02-23T06:25:07.315Z,2.20
2019-02-23T06:27:35.552Z,2.20
2019-02-23T06:30:05.946Z,2.20
2019-02-23T06:32:34.211Z,2.20
2019-02-23T06:35:02.436Z,2.30
2019-02-23T06:37:30.655Z,2.30
2019-02-23T06:39:58.905Z,2.30
2019-02-23T06:42:27.156Z,2.20
2019-02-23T06:44:55.397Z,2.20
2019-02-23T06:47:23.622Z,2.20
2019-02-23T06:49:51.862Z,2.20
2019-02-23T06:52:20.115Z,2.20
2019-02-23T06:54:48.392Z,2.30
2019-02-23T06:57:16.673Z,2.20
2019-02-23T06:59:44.915Z,2.20
2019-02-23T07:02:13.202Z,2.30
2019-02-23T07:04:41.483Z,2.20
2019-02-23T07:07:09.713Z,2.30
2019-02-23T07:09:37.953Z,2.20
2019-02-23T07:12:06.196Z,2.30
2019-02-23T07:14:34.452Z,2.30
2019-02-23T07:17:05.004Z,2.30
2019-02-23T07:19:32.630Z,2.40
2019-02-23T07:22:00.879Z,2.50
2019-02-23T07:24:29.122Z,2.50
2019-02-23T07:26:57.432Z,2.70
2019-02-23T07:29:25.681Z,2.80
2019-02-23T07:31:53.922Z,2.80
2019-02-23T07:34:22.162Z,2.90
2019-02-23T07:36:50.389Z,3.10
2019-02-23T07:39:18.627Z,3.10
2019-02-23T07:41:46.890Z,3.20
2019-02-23T07:44:15.115Z,3.20
2019-02-23T07:46:43.436Z,3.40
2019-02-23T07:49:11.660Z,3.40
2019-02-23T07:51:39.935Z,3.50
2019-02-23T07:54:08.164Z,3.70
2019-02-23T07:56:36.437Z,3.90
2019-02-23T07:59:04.767Z,4.00
2019-02-23T08:01:33.028Z,4.20
2019-02-23T08:04:01.240Z,4.30
2019-02-23T08:06:29.504Z,4.40
2019-02-23T08:08:57.740Z,4.50
2019-02-23T08:11:25.972Z,4.60
2019-02-23T08:13:54.228Z,4.80
2019-02-23T08:16:22.469Z,4.90
2019-02-23T08:18:50.788Z,5.00
2019-02-23T08:21:19.018Z,5.10
2019-02-23T08:23:47.287Z,5.20
2019-02-23T08:26:15.525Z,5.30
2019-02-23T08:28:43.746Z,5.50
2019-02-23T08:31:13.425Z,5.60
2019-02-23T08:33:41.831Z,5.80
2019-02-23T08:36:10.094Z,6.00
2019-02-23T08:38:38.355Z,6.10
2019-02-23T08:41:06.599Z,6.10
2019-02-23T08:43:34.828Z,6.20
2019-02-23T08:46:03.080Z,6.30
2019-02-23T08:48:33.395Z,6.40
2019-02-23T08:51:04.088Z,6.60
2019-02-23T08:53:32.325Z,6.70
2019-02-23T08:56:00.573Z,6.70
2019-02-23T08:58:28.831Z,6.80
2019-02-23T09:00:57.082Z,6.90
2019-02-23T09:03:25.330Z,6.90
2019-02-23T09:05:53.566Z,7.00
2019-02-23T09:08:21.819Z,6.90
2019-02-23T09:10:50.052Z,6.90
2019-02-23T09:13:18.307Z,6.90
2019-02-23T09:15:46.541Z,6.90
2019-02-23T09:18:14.786Z,7.00
2019-02-23T09:20:43.018Z,7.10
2019-02-23T09:23:11.315Z,7.30
2019-02-23T09:25:39.597Z,7.30
2019-02-23T09:28:07.848Z,7.40
2019-02-23T09:30:36.091Z,7.40
2019-02-23T09:33:04.324Z,7.50
2019-02-23T09:35:32.581Z,7.60
2019-02-23T09:38:00.834Z,7.70
2019-02-23T09:40:29.071Z,7.90
2019-02-23T09:42:57.291Z,8.00
2019-02-23T09:45:25.550Z,8.20
2019-02-23T09:47:53.792Z,8.30
2019-02-23T09:50:22.054Z,8.40
2019-02-23T09:52:50.296Z,8.60
2019-02-23T09:55:18.552Z,8.60
2019-02-23T09:57:46.788Z,8.80
2019-02-23T10:00:15.030Z,8.90
2019-02-23T10:02:43.285Z,9.10
2019-02-23T10:05:11.517Z,9.20
2019-02-23T10:07:39.770Z,9.30
2019-02-23T10:10:10.607Z,9.50
2019-02-23T10:12:38.840Z,9.60
2019-02-23T10:15:11.295Z,9.80
2019-02-23T10:17:39.543Z,9.90
2019-02-23T10:20:11.811Z,10.00
2019-02-23T10:22:40.048Z,10.20
2019-02-23T10:25:19.057Z,10.30
2019-02-23T10:27:47.368Z,10.40
2019-02-23T10:30:16.677Z,10.50
2019-02-23T10:32:46.535Z,10.50
2019-02-23T10:35:14.783Z,10.60
2019-02-23T10:37:44.773Z,10.80
2019-02-23T10:40:13.205Z,10.90
2019-02-23T10:42:41.457Z,11.10
2019-02-23T10:45:13.266Z,11.20
2019-02-23T10:47:41.518Z,11.30
2019-02-23T10:50:14.251Z,11.40
2019-02-23T10:52:42.498Z,11.30
2019-02-23T10:55:14.954Z,11.50
2019-02-23T10:57:43.210Z,11.80
2019-02-23T11:00:18.621Z,11.90
2019-02-23T11:02:46.860Z,12.10
2019-02-23T11:05:15.663Z,12.20
2019-02-23T11:07:43.916Z,12.40
2019-02-23T11:10:12.148Z,12.50
2019-02-23T11:12:40.409Z,12.50
2019-02-23T11:15:12.844Z,12.50
2019-02-23T11:17:41.072Z,12.70
2019-02-23T11:20:10.472Z,12.90
2019-02-23T11:22:38.708Z,13.00
2019-02-23T11:25:09.583Z,13.10
2019-02-23T11:27:37.850Z,13.40
2019-02-23T11:30:11.042Z,13.50
2019-02-23T11:32:39.274Z,13.70
2019-02-23T11:35:09.379Z,13.70
2019-02-23T11:37:37.594Z,13.80
2019-02-23T11:40:08.673Z,14.10
2019-02-23T11:42:36.934Z,14.20
2019-02-23T11:45:05.808Z,14.40
2019-02-23T11:47:34.027Z,14.70
2019-02-23T11:50:02.266Z,14.90
2019-02-23T11:52:30.681Z,15.10
2019-02-23T11:54:58.922Z,15.20
2019-02-23T11:57:29.096Z,15.40
2019-02-23T11:59:57.360Z,15.40
2019-02-23T12:02:25.638Z,15.40
2019-02-23T12:04:53.966Z,15.70
2019-02-23T12:07:22.284Z,15.60
2019-02-23T12:09:50.661Z,15.60
2019-02-23T12:12:18.931Z,15.60
2019-02-23T12:14:47.174Z,15.80
2019-02-23T12:17:15.430Z,16.00
2019-02-23T12:19:45.312Z,16.30
2019-02-23T12:22:13.564Z,16.40
2019-02-23T12:24:41.858Z,16.50
2019-02-23T12:27:10.106Z,16.50
2019-02-23T12:29:38.355Z,16.50
2019-02-23T12:32:06.633Z,16.40
2019-02-23T12:34:34.871Z,16.10
2019-02-23T12:37:03.099Z,16.50
2019-02-23T12:39:31.372Z,16.50
2019-02-23T12:41:59.613Z,16.70
2019-02-23T12:44:27.836Z,16.50
2019-02-23T12:46:56.055Z,16.50
2019-02-23T12:49:24.375Z,16.60
2019-02-23T12:51:52.647Z,16.60
2019-02-23T12:54:20.879Z,16.70
2019-02-23T12:56:49.110Z,16.70
2019-02-23T12:59:17.418Z,16.70
2019-02-23T13:01:45.664Z,16.80
2019-02-23T13:04:13.914Z,16.90
2019-02-23T13:06:42.135Z,17.00
2019-02-23T13:09:20.984Z,17.30
2019-02-23T13:11:52.475Z,17.30
2019-02-23T13:14:23.978Z,17.20
2019-02-23T13:16:58.789Z,17.00
2019-02-23T13:19:42.408Z,17.20
2019-02-23T13:22:22.872Z,17.10
2019-02-23T13:25:16.401Z,17.20
2019-02-23T13:27:56.352Z,17.50
2019-02-23T13:30:49.232Z,18.00
2019-02-23T13:33:26.788Z,18.10
2019-02-23T13:36:23.846Z,18.00
2019-02-23T13:39:07.161Z,17.90
2019-02-23T13:41:44.561Z,17.70
2019-02-23T13:44:37.168Z,17.30
2019-02-23T13:47:26.098Z,17.10
2019-02-23T13:50:09.384Z,17.10
2019-02-23T13:53:00.203Z,17.00
2019-02-23T13:55:34.596Z,16.80
2019-02-23T13:58:22.842Z,16.50
2019-02-23T14:01:00.284Z,15.90
2019-02-23T14:03:48.864Z,15.40
2019-02-23T14:06:20.331Z,15.20
2019-02-23T14:08:54.493Z,14.80
2019-02-23T14:11:28.917Z,14.60
2019-02-23T14:14:00.412Z,14.50
2019-02-23T14:16:43.941Z,14.20
2019-02-23T14:19:36.397Z,14.30
2019-02-23T14:22:16.891Z,14.50
2019-02-23T14:24:50.905Z,14.90
2019-02-23T14:27:34.467Z,15.10
2019-02-23T14:30:39.489Z,15.10
2019-02-23T14:33:22.595Z,14.70
2019-02-23T14:36:03.113Z,14.20
2019-02-23T14:38:54.108Z,13.80
2019-02-23T14:41:51.390Z,13.70
2019-02-23T14:44:31.868Z,13.70
2019-02-23T14:47:14.944Z,13.40
2019-02-23T14:49:58.116Z,13.10
2019-02-23T14:52:50.801Z,12.90
2019-02-23T14:55:42.299Z,12.90
2019-02-23T14:58:35.039Z,12.80
2019-02-23T15:01:12.200Z,12.60
2019-02-23T15:03:59.467Z,12.60
2019-02-23T15:06:49.336Z,12.40
2019-02-23T15:09:29.598Z,12.10
2019-02-23T15:12:03.840Z,12.00
2019-02-23T15:14:59.120Z,11.90
2019-02-23T15:17:49.756Z,11.90
2019-02-23T15:20:54.905Z,11.80
2019-02-23T15:23:59.240Z,11.80
2019-02-23T15:26:42.713Z,11.60
2019-02-23T15:29:35.544Z,11.40
2019-02-23T15:32:15.785Z,11.30
2019-02-23T15:35:05.317Z,11.20
2019-02-23T15:37:39.607Z,11.10
2019-02-23T15:40:16.786Z,11.00
2019-02-23T15:43:00.556Z,10.80
2019-02-23T15:45:50.225Z,10.60
2019-02-23T15:48:43.776Z,10.50
2019-02-23T15:51:12.001Z,10.40
2019-02-23T15:53:40.334Z,10.40
2019-02-23T15:56:11.251Z,10.30
2019-02-23T15:58:39.497Z,10.20
2019-02-23T16:01:07.765Z,10.00
2019-02-23T16:03:35.998Z,9.90
2019-02-23T16:06:04.217Z,9.80
2019-02-23T16:08:32.468Z,9.70
2019-02-23T16:11:00.716Z,9.70
2019-02-23T16:13:28.969Z,9.60
2019-02-23T16:15:57.215Z,9.60
2019-02-23T16:18:25.445Z,9.60
2019-02-23T16:20:53.735Z,9.50
2019-02-23T16:23:21.961Z,9.40
2019-02-23T16:25:50.202Z,9.40
2019-02-23T16:28:18.442Z,9.30
2019-02-23T16:30:46.672Z,9.20
2019-02-23T16:33:14.927Z,9.10
2019-02-23T16:35:43.162Z,9.00
2019-02-23T16:38:11.394Z,9.00
2019-02-23T16:40:39.649Z,8.90
2019-02-23T16:43:07.906Z,8.90
2019-02-23T16:45:36.118Z,8.80
2019-02-23T16:48:04.360Z,8.80
2019-02-23T16:50:32.639Z,8.70
2019-02-23T16:53:00.915Z,8.60
2019-02-23T16:55:29.124Z,8.50
2019-02-23T16:57:57.363Z,8.50
2019-02-23T17:00:25.593Z,8.40
2019-02-23T17:02:53.840Z,8.40
2019-02-23T17:05:22.087Z,8.30
2019-02-23T17:07:50.326Z,8.30
2019-02-23T17:10:18.556Z,8.30
2019-02-23T17:12:46.789Z,8.20
2019-02-23T17:15:15.050Z,8.20
2019-02-23T17:17:43.262Z,8.10
2019-02-23T17:20:11.673Z,8.10
2019-02-23T17:22:39.906Z,8.00
2019-02-23T17:25:08.228Z,8.00
2019-02-23T17:27:36.691Z,7.90
2019-02-23T17:30:06.919Z,7.80
2019-02-23T17:32:35.194Z,7.80
2019-02-23T17:35:04.044Z,7.70
2019-02-23T17:37:32.291Z,7.60
2019-02-23T17:40:00.555Z,7.50
2019-02-23T17:42:28.820Z,7.50
2019-02-23T17:44:57.135Z,7.50
2019-02-23T17:47:25.360Z,7.40
2019-02-23T17:49:53.603Z,7.40
2019-02-23T17:52:21.850Z,7.40
2019-02-23T17:54:50.083Z,7.30
2019-02-23T17:57:18.377Z,7.20
2019-02-23T17:59:46.617Z,7.20
2019-02-23T18:02:14.858Z,7.10
2019-02-23T18:04:43.099Z,7.10
2019-02-23T18:07:11.312Z,7.00
2019-02-23T18:09:39.575Z,7.00
2019-02-23T18:12:07.813Z,7.00
2019-02-23T18:14:36.054Z,7.00
2019-02-23T18:17:04.314Z,7.00
2019-02-23T18:19:32.518Z,7.00
2019-02-23T18:22:00.735Z,6.90
2019-02-23T18:24:28.983Z,6.90
2019-02-23T18:26:57.235Z,6.90
2019-02-23T18:29:25.548Z,6.80
2019-02-23T18:31:53.763Z,6.90
2019-02-23T18:34:22.009Z,6.90
2019-02-23T18:36:50.247Z,6.80
2019-02-23T18:39:18.486Z,6.80
2019-02-23T18:41:46.730Z,6.70
2019-02-23T18:44:14.966Z,6.70
2019-02-23T18:46:43.209Z,6.70
2019-02-23T18:49:11.453Z,6.60
2019-02-23T18:51:39.693Z,6.60
2019-02-23T18:54:07.953Z,6.50
2019-02-23T18:56:36.146Z,6.50
2019-02-23T18:59:04.408Z,6.50
2019-02-23T19:01:32.632Z,6.40
2019-02-23T19:04:00.857Z,6.40
2019-02-23T19:06:29.108Z,6.40
2019-02-23T19:08:57.333Z,6.40
2019-02-23T19:11:25.558Z,6.30
2019-02-23T19:13:53.790Z,6.30
2019-02-23T19:16:23.363Z,6.30
2019-02-23T19:18:51.754Z,6.20
2019-02-23T19:21:19.980Z,6.30
2019-02-23T19:23:48.266Z,6.20
2019-02-23T19:26:16.506Z,6.20
2019-02-23T19:28:44.758Z,6.20
2019-02-23T19:31:13.002Z,6.20
2019-02-23T19:33:41.231Z,6.10
2019-02-23T19:36:09.482Z,6.00
2019-02-23T19:38:37.744Z,6.00
2019-02-23T19:41:05.948Z,6.00
2019-02-23T19:43:34.190Z,6.00
2019-02-23T19:46:02.415Z,6.00
2019-02-23T19:48:30.662Z,6.00
2019-02-23T19:51:04.742Z,6.00
2019-02-23T19:53:32.963Z,6.00
2019-02-23T19:56:01.198Z,6.00
2019-02-23T19:58:29.430Z,5.90
2019-02-23T20:00:57.690Z,6.00
2019-02-23T20:03:25.891Z,5.90
2019-02-23T20:05:54.136Z,5.90
2019-02-23T20:08:41.792Z,5.90
2019-02-23T20:11:10.052Z,5.80
2019-02-23T20:13:38.286Z,5.80
2019-02-23T20:16:06.523Z,5.70
2019-02-23T20:18:34.739Z,5.70
2019-02-23T20:21:03.002Z,5.60
2019-02-23T20:23:31.241Z,5.60
2019-02-23T20:25:59.472Z,5.50
2019-02-23T20:28:27.717Z,5.30
2019-02-23T20:30:55.970Z,5.20
2019-02-23T20:33:24.212Z,5.20
2019-02-23T20:35:52.431Z,5.20
2019-02-23T20:38:20.677Z,5.20
2019-02-23T20:40:48.900Z,5.10
2019-02-23T20:43:17.146Z,5.10
2019-02-23T20:45:45.431Z,4.90
2019-02-23T20:48:13.694Z,4.90
2019-02-23T20:50:41.994Z,4.80
2019-02-23T20:53:10.308Z,4.70
2019-02-23T20:55:38.547Z,4.70
2019-02-23T20:58:06.848Z,4.60
2019-02-23T21:00:35.102Z,4.50
2019-02-23T21:03:03.329Z,4.50
2019-02-23T21:05:31.574Z,4.50
2019-02-23T21:07:59.883Z,4.40
2019-02-23T21:10:28.245Z,4.40
2019-02-23T21:12:56.540Z,4.40
2019-02-23T21:15:24.769Z,4.40
2019-02-23T21:17:53.009Z,4.30
2019-02-23T21:20:21.230Z,4.30
2019-02-23T21:22:49.501Z,4.30
2019-02-23T21:25:17.717Z,4.20
2019-02-23T21:27:45.998Z,4.20
2019-02-23T21:30:14.242Z,4.20
2019-02-23T21:32:42.457Z,4.20
2019-02-23T21:35:10.706Z,4.10
2019-02-23T21:37:38.966Z,4.10
2019-02-23T21:40:08.942Z,4.10
2019-02-23T21:42:37.165Z,4.10
2019-02-23T21:45:07.584Z,4.00
2019-02-23T21:47:35.846Z,4.00
2019-02-23T21:50:06.264Z,4.00
2019-02-23T21:52:34.491Z,4.00
2019-02-23T21:55:02.753Z,4.00
2019-02-23T21:57:30.954Z,4.00
2019-02-23T21:59:59.330Z,3.90
2019-02-23T22:02:27.571Z,3.80
2019-02-23T22:04:55.803Z,3.80
2019-02-23T22:07:24.027Z,3.80
2019-02-23T22:09:52.274Z,3.70
2019-02-23T22:12:20.504Z,3.60
2019-02-23T22:14:48.764Z,3.50
2019-02-23T22:17:17.048Z,3.50
2019-02-23T22:19:45.275Z,3.50
2019-02-23T22:22:13.519Z,3.50
2019-02-23T22:24:41.742Z,3.40
2019-02-23T22:27:09.978Z,3.40
2019-02-23T22:29:38.222Z,3.40
2019-02-23T22:32:06.448Z,3.40
2019-02-23T22:34:34.763Z,3.30
2019-02-23T22:37:02.984Z,3.20
2019-02-23T22:39:31.226Z,3.30
2019-02-23T22:41:59.442Z,3.20
2019-02-23T22:44:27.718Z,3.20
2019-02-23T22:46:55.976Z,3.10
2019-02-23T22:49:24.212Z,3.10
2019-02-23T22:51:52.450Z,3.10
2019-02-23T22:54:20.693Z,3.10
2019-02-23T22:56:48.950Z,3.10
2019-02-23T22:59:17.176Z,3.00
2019-02-23T23:01:45.482Z,3.00
2019-02-23T23:04:13.727Z,3.00
2019-02-23T23:06:41.960Z,3.00
2019-02-23T23:09:11.899Z,2.90
2019-02-23T23:11:40.198Z,2.90
2019-02-23T23:14:08.470Z,2.80
2019-02-23T23:16:36.691Z,2.80
2019-02-23T23:19:05.009Z,2.80
2019-02-23T23:21:33.254Z,2.80
2019-02-23T23:24:01.475Z,2.70
2019-02-23T23:26:29.735Z,2.70
2019-02-23T23:28:57.959Z,2.70
2019-02-23T23:31:26.195Z,2.70
2019-02-23T23:33:54.425Z,2.70
2019-02-23T23:36:22.655Z,2.70
2019-02-23T23:38:51.778Z,2.70
2019-02-23T23:41:20.017Z,2.60
2019-02-23T23:43:48.256Z,2.50
2019-02-23T23:46:16.530Z,2.60
2019-02-23T23:48:44.742Z,2.50
2019-02-23T23:51:12.986Z,2.50
2019-02-23T23:53:41.196Z,2.50
2019-02-23T23:56:09.456Z,2.40
2019-02-23T23:58:37.684Z,2.40
